sensor_id;sensor_type;location;lat;lon;timestamp;P1;durP1;ratioP1;P2;durP2;ratioP2
40052;SDS011;25758;48.200;16.338;2022-12-18T00:00:20;8.88;;;4.85;;
40052;SDS011;25758;48.200;16.338;2022-12-18T00:02:46;11.50;;;5.43;;
40052;SDS011;25758;48.200;16.338;2022-12-18T00:08:19;12.80;;;5.05;;
40052;SDS011;25758;48.200;16.338;2022-12-18T00:10:44;12.50;;;5.40;;
40052;SDS011;25758;48.200;16.338;2022-12-18T00:13:10;10.45;;;5.20;;
40052;SDS011;25758;48.200;16.338;2022-12-18T00:21:46;9.20;;;4.43;;
40052;SDS011;25758;48.200;16.338;2022-12-18T00:24:11;9.30;;;5.17;;
40052;SDS011;25758;48.200;16.338;2022-12-18T00:35:43;12.30;;;4.83;;
40052;SDS011;25758;48.200;16.338;2022-12-18T00:38:08;7.63;;;4.32;;
40052;SDS011;25758;48.200;16.338;2022-12-18T00:43:20;9.23;;;5.47;;
40052;SDS011;25758;48.200;16.338;2022-12-18T00:45:45;10.88;;;5.03;;
40052;SDS011;25758;48.200;16.338;2022-12-18T00:48:23;9.95;;;4.68;;
40052;SDS011;25758;48.200;16.338;2022-12-18T00:50:49;9.60;;;4.45;;
40052;SDS011;25758;48.200;16.338;2022-12-18T00:53:15;9.30;;;4.93;;
40052;SDS011;25758;48.200;16.338;2022-12-18T00:55:41;9.15;;;4.30;;
40052;SDS011;25758;48.200;16.338;2022-12-18T00:58:08;8.55;;;4.90;;
40052;SDS011;25758;48.200;16.338;2022-12-18T01:27:20;13.48;;;7.63;;
40052;SDS011;25758;48.200;16.338;2022-12-18T01:29:45;15.70;;;7.23;;
40052;SDS011;25758;48.200;16.338;2022-12-18T01:32:11;14.57;;;7.77;;
40052;SDS011;25758;48.200;16.338;2022-12-18T01:37:43;16.45;;;8.52;;
40052;SDS011;25758;48.200;16.338;2022-12-18T01:40:09;16.03;;;8.07;;
40052;SDS011;25758;48.200;16.338;2022-12-18T01:42:35;19.77;;;8.60;;
40052;SDS011;25758;48.200;16.338;2022-12-18T02:17:01;18.43;;;9.27;;
40052;SDS011;25758;48.200;16.338;2022-12-18T02:30:40;24.30;;;10.93;;
40052;SDS011;25758;48.200;16.338;2022-12-18T02:33:07;23.27;;;10.80;;
40052;SDS011;25758;48.200;16.338;2022-12-18T02:35:36;22.33;;;10.90;;
40052;SDS011;25758;48.200;16.338;2022-12-18T02:41:00;22.20;;;10.30;;
40052;SDS011;25758;48.200;16.338;2022-12-18T02:43:29;19.27;;;10.27;;
40052;SDS011;25758;48.200;16.338;2022-12-18T02:45:58;22.63;;;9.97;;
40052;SDS011;25758;48.200;16.338;2022-12-18T02:51:19;18.93;;;9.80;;
40052;SDS011;25758;48.200;16.338;2022-12-18T02:54:45;19.83;;;9.20;;
40052;SDS011;25758;48.200;16.338;2022-12-18T02:57:21;18.77;;;10.37;;
40052;SDS011;25758;48.200;16.338;2022-12-18T02:59:52;22.80;;;11.10;;
40052;SDS011;25758;48.200;16.338;2022-12-18T03:03:18;18.73;;;10.20;;
40052;SDS011;25758;48.200;16.338;2022-12-18T03:07:59;19.30;;;9.87;;
40052;SDS011;25758;48.200;16.338;2022-12-18T03:14:33;19.40;;;9.63;;
40052;SDS011;25758;48.200;16.338;2022-12-18T03:17:05;23.10;;;10.93;;
40052;SDS011;25758;48.200;16.338;2022-12-18T03:19:34;18.83;;;9.77;;
40052;SDS011;25758;48.200;16.338;2022-12-18T03:22:01;23.23;;;11.23;;
40052;SDS011;25758;48.200;16.338;2022-12-18T03:27:42;22.23;;;11.17;;
40052;SDS011;25758;48.200;16.338;2022-12-18T03:30:12;22.90;;;10.00;;
40052;SDS011;25758;48.200;16.338;2022-12-18T03:35:10;25.50;;;11.00;;
40052;SDS011;25758;48.200;16.338;2022-12-18T03:37:40;23.43;;;10.90;;
40052;SDS011;25758;48.200;16.338;2022-12-18T03:40:06;20.37;;;9.90;;
40052;SDS011;25758;48.200;16.338;2022-12-18T03:42:37;20.73;;;10.70;;
40052;SDS011;25758;48.200;16.338;2022-12-18T03:52:06;21.50;;;11.03;;
40052;SDS011;25758;48.200;16.338;2022-12-18T03:54:41;21.77;;;11.17;;
40052;SDS011;25758;48.200;16.338;2022-12-18T03:57:10;23.80;;;11.23;;
40052;SDS011;25758;48.200;16.338;2022-12-18T03:59:39;22.57;;;10.83;;
40052;SDS011;25758;48.200;16.338;2022-12-18T04:02:06;25.30;;;11.07;;
40052;SDS011;25758;48.200;16.338;2022-12-18T04:11:25;19.63;;;11.03;;
40052;SDS011;25758;48.200;16.338;2022-12-18T04:13:53;21.47;;;10.20;;
40052;SDS011;25758;48.200;16.338;2022-12-18T04:19:15;19.93;;;10.60;;
40052;SDS011;25758;48.200;16.338;2022-12-18T04:21:41;21.77;;;11.63;;
40052;SDS011;25758;48.200;16.338;2022-12-18T04:24:06;24.50;;;10.63;;
40052;SDS011;25758;48.200;16.338;2022-12-18T04:26:45;19.17;;;10.83;;
40052;SDS011;25758;48.200;16.338;2022-12-18T04:29:11;22.53;;;10.63;;
40052;SDS011;25758;48.200;16.338;2022-12-18T04:31:37;22.20;;;10.97;;
40052;SDS011;25758;48.200;16.338;2022-12-18T04:37:29;23.70;;;12.03;;
40052;SDS011;25758;48.200;16.338;2022-12-18T04:39:55;24.13;;;12.60;;
40052;SDS011;25758;48.200;16.338;2022-12-18T04:42:21;23.20;;;12.13;;
40052;SDS011;25758;48.200;16.338;2022-12-18T04:44:46;23.33;;;12.10;;
40052;SDS011;25758;48.200;16.338;2022-12-18T04:47:12;20.90;;;11.10;;
40052;SDS011;25758;48.200;16.338;2022-12-18T04:49:37;24.67;;;11.70;;
40052;SDS011;25758;48.200;16.338;2022-12-18T04:52:03;24.20;;;10.77;;
40052;SDS011;25758;48.200;16.338;2022-12-18T04:54:29;21.07;;;11.13;;
40052;SDS011;25758;48.200;16.338;2022-12-18T04:57:13;26.57;;;12.60;;
40052;SDS011;25758;48.200;16.338;2022-12-18T04:59:38;24.38;;;11.60;;
40052;SDS011;25758;48.200;16.338;2022-12-18T05:02:04;23.60;;;11.63;;
40052;SDS011;25758;48.200;16.338;2022-12-18T05:11:23;16.37;;;8.47;;
40052;SDS011;25758;48.200;16.338;2022-12-18T05:13:48;20.90;;;9.13;;
40052;SDS011;25758;48.200;16.338;2022-12-18T05:16:14;18.87;;;8.87;;
40052;SDS011;25758;48.200;16.338;2022-12-18T05:18:40;18.37;;;9.77;;
40052;SDS011;25758;48.200;16.338;2022-12-18T05:21:06;19.53;;;9.77;;
40052;SDS011;25758;48.200;16.338;2022-12-18T05:23:32;18.67;;;10.13;;
40052;SDS011;25758;48.200;16.338;2022-12-18T05:26:00;21.97;;;9.27;;
40052;SDS011;25758;48.200;16.338;2022-12-18T05:28:29;23.37;;;12.10;;
40052;SDS011;25758;48.200;16.338;2022-12-18T05:30:56;21.00;;;10.47;;
40052;SDS011;25758;48.200;16.338;2022-12-18T05:33:23;21.33;;;10.63;;
40052;SDS011;25758;48.200;16.338;2022-12-18T05:38:49;18.90;;;11.17;;
40052;SDS011;25758;48.200;16.338;2022-12-18T05:41:14;22.13;;;11.33;;
40052;SDS011;25758;48.200;16.338;2022-12-18T05:43:40;19.80;;;10.67;;
40052;SDS011;25758;48.200;16.338;2022-12-18T05:46:07;20.73;;;10.97;;
40052;SDS011;25758;48.200;16.338;2022-12-18T05:48:44;20.57;;;10.63;;
40052;SDS011;25758;48.200;16.338;2022-12-18T05:51:12;18.57;;;9.67;;
40052;SDS011;25758;48.200;16.338;2022-12-18T05:53:39;22.57;;;10.40;;
40052;SDS011;25758;48.200;16.338;2022-12-18T05:56:07;18.03;;;9.23;;
40052;SDS011;25758;48.200;16.338;2022-12-18T05:58:37;19.03;;;10.13;;
40052;SDS011;25758;48.200;16.338;2022-12-18T06:01:10;27.30;;;10.50;;
40052;SDS011;25758;48.200;16.338;2022-12-18T06:03:37;22.73;;;9.83;;
40052;SDS011;25758;48.200;16.338;2022-12-18T06:06:03;21.97;;;10.87;;
40052;SDS011;25758;48.200;16.338;2022-12-18T06:08:38;23.23;;;11.43;;
40052;SDS011;25758;48.200;16.338;2022-12-18T06:11:03;20.53;;;10.07;;
40052;SDS011;25758;48.200;16.338;2022-12-18T06:13:33;17.03;;;9.20;;
40052;SDS011;25758;48.200;16.338;2022-12-18T06:16:01;24.77;;;9.50;;
40052;SDS011;25758;48.200;16.338;2022-12-18T06:18:28;20.47;;;10.23;;
40052;SDS011;25758;48.200;16.338;2022-12-18T06:20:54;25.27;;;11.40;;
40052;SDS011;25758;48.200;16.338;2022-12-18T06:23:21;18.37;;;10.37;;
40052;SDS011;25758;48.200;16.338;2022-12-18T06:29:16;20.90;;;9.97;;
40052;SDS011;25758;48.200;16.338;2022-12-18T06:31:59;18.97;;;9.50;;
40052;SDS011;25758;48.200;16.338;2022-12-18T06:34:24;19.20;;;10.03;;
40052;SDS011;25758;48.200;16.338;2022-12-18T06:36:50;25.50;;;10.67;;
40052;SDS011;25758;48.200;16.338;2022-12-18T06:42:36;19.77;;;9.97;;
40052;SDS011;25758;48.200;16.338;2022-12-18T06:45:02;21.37;;;9.67;;
40052;SDS011;25758;48.200;16.338;2022-12-18T06:47:28;24.97;;;11.53;;
40052;SDS011;25758;48.200;16.338;2022-12-18T06:50:12;23.87;;;11.23;;
40052;SDS011;25758;48.200;16.338;2022-12-18T06:52:38;24.40;;;12.83;;
40052;SDS011;25758;48.200;16.338;2022-12-18T06:55:05;29.10;;;13.10;;
40052;SDS011;25758;48.200;16.338;2022-12-18T06:57:34;29.23;;;13.20;;
40052;SDS011;25758;48.200;16.338;2022-12-18T07:00:16;27.67;;;13.37;;
40052;SDS011;25758;48.200;16.338;2022-12-18T07:02:43;27.30;;;13.13;;
40052;SDS011;25758;48.200;16.338;2022-12-18T07:05:09;26.63;;;13.47;;
40052;SDS011;25758;48.200;16.338;2022-12-18T07:07:35;28.27;;;13.87;;
40052;SDS011;25758;48.200;16.338;2022-12-18T07:13:42;32.53;;;14.10;;
40052;SDS011;25758;48.200;16.338;2022-12-18T07:16:25;27.77;;;13.87;;
40052;SDS011;25758;48.200;16.338;2022-12-18T07:18:54;30.80;;;14.60;;
40052;SDS011;25758;48.200;16.338;2022-12-18T07:21:20;30.60;;;15.70;;
40052;SDS011;25758;48.200;16.338;2022-12-18T07:23:47;28.23;;;14.10;;
40052;SDS011;25758;48.200;16.338;2022-12-18T07:26:14;27.37;;;13.13;;
40052;SDS011;25758;48.200;16.338;2022-12-18T07:28:42;26.17;;;13.37;;
40052;SDS011;25758;48.200;16.338;2022-12-18T07:31:12;29.87;;;15.50;;
40052;SDS011;25758;48.200;16.338;2022-12-18T07:36:51;34.43;;;13.97;;
40052;SDS011;25758;48.200;16.338;2022-12-18T07:39:17;28.77;;;15.37;;
40052;SDS011;25758;48.200;16.338;2022-12-18T07:41:53;29.37;;;15.07;;
40052;SDS011;25758;48.200;16.338;2022-12-18T07:45:02;31.77;;;14.47;;
40052;SDS011;25758;48.200;16.338;2022-12-18T07:50:21;32.00;;;15.40;;
40052;SDS011;25758;48.200;16.338;2022-12-18T07:52:47;35.40;;;17.70;;
40052;SDS011;25758;48.200;16.338;2022-12-18T07:58:51;35.87;;;17.13;;
40052;SDS011;25758;48.200;16.338;2022-12-18T08:01:22;38.00;;;18.20;;
40052;SDS011;25758;48.200;16.338;2022-12-18T08:03:48;38.63;;;19.57;;
40052;SDS011;25758;48.200;16.338;2022-12-18T08:06:14;46.10;;;17.47;;
40052;SDS011;25758;48.200;16.338;2022-12-18T08:08:42;39.33;;;18.17;;
40052;SDS011;25758;48.200;16.338;2022-12-18T08:13:59;36.53;;;15.63;;
40052;SDS011;25758;48.200;16.338;2022-12-18T08:16:25;32.40;;;16.10;;
40052;SDS011;25758;48.200;16.338;2022-12-18T08:22:22;39.20;;;18.07;;
40052;SDS011;25758;48.200;16.338;2022-12-18T08:27:51;34.70;;;15.80;;
40052;SDS011;25758;48.200;16.338;2022-12-18T08:30:17;30.97;;;15.63;;
40052;SDS011;25758;48.200;16.338;2022-12-18T08:32:43;33.00;;;15.63;;
40052;SDS011;25758;48.200;16.338;2022-12-18T08:35:08;33.43;;;15.40;;
40052;SDS011;25758;48.200;16.338;2022-12-18T08:37:36;36.13;;;16.90;;
40052;SDS011;25758;48.200;16.338;2022-12-18T08:40:03;30.10;;;15.87;;
40052;SDS011;25758;48.200;16.338;2022-12-18T08:42:31;40.00;;;17.33;;
40052;SDS011;25758;48.200;16.338;2022-12-18T08:45:18;38.97;;;18.20;;
40052;SDS011;25758;48.200;16.338;2022-12-18T08:47:44;34.63;;;17.33;;
40052;SDS011;25758;48.200;16.338;2022-12-18T08:50:09;34.43;;;16.87;;
40052;SDS011;25758;48.200;16.338;2022-12-18T08:52:36;36.53;;;16.93;;
40052;SDS011;25758;48.200;16.338;2022-12-18T08:55:02;34.77;;;17.37;;
40052;SDS011;25758;48.200;16.338;2022-12-18T09:01:03;37.23;;;18.73;;
40052;SDS011;25758;48.200;16.338;2022-12-18T09:03:42;38.27;;;18.20;;
40052;SDS011;25758;48.200;16.338;2022-12-18T09:06:08;38.13;;;18.90;;
40052;SDS011;25758;48.200;16.338;2022-12-18T09:08:34;41.07;;;20.53;;
40052;SDS011;25758;48.200;16.338;2022-12-18T09:13:56;38.47;;;19.43;;
40052;SDS011;25758;48.200;16.338;2022-12-18T09:16:23;47.33;;;21.42;;
40052;SDS011;25758;48.200;16.338;2022-12-18T09:18:50;45.60;;;19.77;;
40052;SDS011;25758;48.200;16.338;2022-12-18T09:21:19;46.20;;;20.20;;
40052;SDS011;25758;48.200;16.338;2022-12-18T09:23:54;41.80;;;18.20;;
40052;SDS011;25758;48.200;16.338;2022-12-18T09:26:21;38.07;;;19.53;;
40052;SDS011;25758;48.200;16.338;2022-12-18T09:28:48;42.37;;;20.03;;
40052;SDS011;25758;48.200;16.338;2022-12-18T09:31:14;37.80;;;19.33;;
40052;SDS011;25758;48.200;16.338;2022-12-18T09:33:40;35.23;;;18.73;;
40052;SDS011;25758;48.200;16.338;2022-12-18T09:39:44;37.67;;;19.23;;
40052;SDS011;25758;48.200;16.338;2022-12-18T09:42:20;40.47;;;20.50;;
40052;SDS011;25758;48.200;16.338;2022-12-18T09:44:50;38.73;;;17.53;;
40052;SDS011;25758;48.200;16.338;2022-12-18T09:47:27;39.00;;;18.97;;
40052;SDS011;25758;48.200;16.338;2022-12-18T09:55:51;33.83;;;16.63;;
40052;SDS011;25758;48.200;16.338;2022-12-18T09:58:33;31.67;;;17.03;;
40052;SDS011;25758;48.200;16.338;2022-12-18T10:01:38;34.07;;;15.87;;
40052;SDS011;25758;48.200;16.338;2022-12-18T10:04:04;38.93;;;17.83;;
40052;SDS011;25758;48.200;16.338;2022-12-18T10:06:35;33.37;;;16.27;;
40052;SDS011;25758;48.200;16.338;2022-12-18T10:12:12;37.27;;;18.03;;
40052;SDS011;25758;48.200;16.338;2022-12-18T10:14:57;37.17;;;16.13;;
40052;SDS011;25758;48.200;16.338;2022-12-18T10:26:09;34.10;;;16.93;;
40052;SDS011;25758;48.200;16.338;2022-12-18T10:28:36;37.73;;;16.77;;
40052;SDS011;25758;48.200;16.338;2022-12-18T10:31:21;39.43;;;18.87;;
40052;SDS011;25758;48.200;16.338;2022-12-18T10:33:50;38.33;;;18.60;;
40052;SDS011;25758;48.200;16.338;2022-12-18T10:36:18;36.27;;;16.77;;
40052;SDS011;25758;48.200;16.338;2022-12-18T10:38:44;38.93;;;17.10;;
40052;SDS011;25758;48.200;16.338;2022-12-18T10:50:00;32.30;;;15.30;;
40052;SDS011;25758;48.200;16.338;2022-12-18T10:52:26;36.60;;;17.10;;
40052;SDS011;25758;48.200;16.338;2022-12-18T11:00:46;34.23;;;15.70;;
40052;SDS011;25758;48.200;16.338;2022-12-18T11:08:44;40.17;;;17.13;;
40052;SDS011;25758;48.200;16.338;2022-12-18T11:11:24;32.57;;;15.67;;
40052;SDS011;25758;48.200;16.338;2022-12-18T11:16:30;32.37;;;15.50;;
40052;SDS011;25758;48.200;16.338;2022-12-18T11:22:00;36.93;;;19.93;;
40052;SDS011;25758;48.200;16.338;2022-12-18T11:27:16;34.50;;;17.47;;
40052;SDS011;25758;48.200;16.338;2022-12-18T11:29:49;43.07;;;18.83;;
40052;SDS011;25758;48.200;16.338;2022-12-18T11:38:16;39.30;;;16.47;;
40052;SDS011;25758;48.200;16.338;2022-12-18T11:45:03;37.97;;;19.10;;
40052;SDS011;25758;48.200;16.338;2022-12-18T11:48:01;40.28;;;18.15;;
40052;SDS011;25758;48.200;16.338;2022-12-18T11:53:15;40.30;;;17.87;;
40052;SDS011;25758;48.200;16.338;2022-12-18T12:05:18;37.53;;;17.93;;
40052;SDS011;25758;48.200;16.338;2022-12-18T12:34:23;37.70;;;17.50;;
40052;SDS011;25758;48.200;16.338;2022-12-18T12:40:13;35.90;;;17.70;;
40052;SDS011;25758;48.200;16.338;2022-12-18T12:49:20;45.00;;;20.40;;
40052;SDS011;25758;48.200;16.338;2022-12-18T13:08:50;36.00;;;18.80;;
40052;SDS011;25758;48.200;16.338;2022-12-18T13:26:51;46.83;;;19.97;;
40052;SDS011;25758;48.200;16.338;2022-12-18T13:39:33;47.97;;;19.70;;
40052;SDS011;25758;48.200;16.338;2022-12-18T14:14:31;54.10;;;19.73;;
40052;SDS011;25758;48.200;16.338;2022-12-18T14:16:57;50.00;;;20.37;;
40052;SDS011;25758;48.200;16.338;2022-12-18T14:19:26;38.37;;;18.63;;
40052;SDS011;25758;48.200;16.338;2022-12-18T14:21:52;40.57;;;20.73;;
40052;SDS011;25758;48.200;16.338;2022-12-18T14:24:19;43.10;;;20.53;;
40052;SDS011;25758;48.200;16.338;2022-12-18T14:30:15;44.07;;;20.13;;
40052;SDS011;25758;48.200;16.338;2022-12-18T14:33:22;46.20;;;22.47;;
40052;SDS011;25758;48.200;16.338;2022-12-18T14:39:56;53.07;;;21.07;;
40052;SDS011;25758;48.200;16.338;2022-12-18T14:42:45;46.97;;;20.73;;
40052;SDS011;25758;48.200;16.338;2022-12-18T15:13:49;59.77;;;23.80;;
40052;SDS011;25758;48.200;16.338;2022-12-18T15:16:15;56.80;;;24.67;;
40052;SDS011;25758;48.200;16.338;2022-12-18T15:18:42;54.77;;;23.10;;
40052;SDS011;25758;48.200;16.338;2022-12-18T15:24:40;56.97;;;24.60;;
40052;SDS011;25758;48.200;16.338;2022-12-18T15:27:17;59.20;;;25.17;;
40052;SDS011;25758;48.200;16.338;2022-12-18T15:35:47;64.17;;;26.00;;
40052;SDS011;25758;48.200;16.338;2022-12-18T15:38:22;64.63;;;27.23;;
40052;SDS011;25758;48.200;16.338;2022-12-18T15:40:52;60.53;;;25.17;;
40052;SDS011;25758;48.200;16.338;2022-12-18T15:43:20;64.30;;;26.13;;
40052;SDS011;25758;48.200;16.338;2022-12-18T15:46:03;54.07;;;23.13;;
40052;SDS011;25758;48.200;16.338;2022-12-18T15:52:40;62.53;;;25.07;;
40052;SDS011;25758;48.200;16.338;2022-12-18T15:55:12;53.23;;;25.37;;
40052;SDS011;25758;48.200;16.338;2022-12-18T15:57:58;50.93;;;23.60;;
40052;SDS011;25758;48.200;16.338;2022-12-18T16:00:33;56.07;;;24.00;;
40052;SDS011;25758;48.200;16.338;2022-12-18T16:27:12;49.13;;;22.83;;
40052;SDS011;25758;48.200;16.338;2022-12-18T16:29:38;50.67;;;23.10;;
40052;SDS011;25758;48.200;16.338;2022-12-18T16:32:04;52.53;;;24.50;;
40052;SDS011;25758;48.200;16.338;2022-12-18T16:34:33;48.23;;;22.43;;
40052;SDS011;25758;48.200;16.338;2022-12-18T16:40:40;51.17;;;21.63;;
40052;SDS011;25758;48.200;16.338;2022-12-18T16:46:48;50.53;;;22.17;;
40052;SDS011;25758;48.200;16.338;2022-12-18T16:49:15;47.67;;;22.53;;
40052;SDS011;25758;48.200;16.338;2022-12-18T16:51:42;51.40;;;25.37;;
40052;SDS011;25758;48.200;16.338;2022-12-18T16:54:08;51.20;;;23.30;;
40052;SDS011;25758;48.200;16.338;2022-12-18T17:00:07;40.67;;;19.00;;
40052;SDS011;25758;48.200;16.338;2022-12-18T17:02:35;41.53;;;20.43;;
40052;SDS011;25758;48.200;16.338;2022-12-18T17:05:01;43.70;;;19.67;;
40052;SDS011;25758;48.200;16.338;2022-12-18T17:23:12;39.57;;;19.53;;
40052;SDS011;25758;48.200;16.338;2022-12-18T17:25:39;40.10;;;19.63;;
40052;SDS011;25758;48.200;16.338;2022-12-18T17:28:05;42.17;;;20.13;;
40052;SDS011;25758;48.200;16.338;2022-12-18T17:30:37;39.20;;;19.33;;
40052;SDS011;25758;48.200;16.338;2022-12-18T17:33:02;36.93;;;17.57;;
40052;SDS011;25758;48.200;16.338;2022-12-18T17:35:29;42.57;;;19.77;;
40052;SDS011;25758;48.200;16.338;2022-12-18T17:37:55;36.83;;;17.73;;
40052;SDS011;25758;48.200;16.338;2022-12-18T17:40:21;40.07;;;19.20;;
40052;SDS011;25758;48.200;16.338;2022-12-18T18:02:57;38.17;;;18.23;;
40052;SDS011;25758;48.200;16.338;2022-12-18T18:05:23;42.73;;;18.37;;
40052;SDS011;25758;48.200;16.338;2022-12-18T18:18:17;37.70;;;18.70;;
40052;SDS011;25758;48.200;16.338;2022-12-18T18:27:28;41.50;;;20.47;;
40052;SDS011;25758;48.200;16.338;2022-12-18T18:29:55;43.70;;;20.77;;
40052;SDS011;25758;48.200;16.338;2022-12-18T18:32:21;39.77;;;19.67;;
40052;SDS011;25758;48.200;16.338;2022-12-18T18:34:48;39.13;;;18.97;;
40052;SDS011;25758;48.200;16.338;2022-12-18T18:37:14;40.40;;;19.23;;
40052;SDS011;25758;48.200;16.338;2022-12-18T18:39:40;34.50;;;16.63;;
40052;SDS011;25758;48.200;16.338;2022-12-18T18:48:48;31.60;;;15.47;;
40052;SDS011;25758;48.200;16.338;2022-12-18T18:51:15;31.33;;;14.10;;
40052;SDS011;25758;48.200;16.338;2022-12-18T19:00:24;35.85;;;15.93;;
40052;SDS011;25758;48.200;16.338;2022-12-18T19:16:12;33.37;;;16.30;;
40052;SDS011;25758;48.200;16.338;2022-12-18T19:18:44;32.60;;;15.23;;
40052;SDS011;25758;48.200;16.338;2022-12-18T19:21:10;32.10;;;14.53;;
40052;SDS011;25758;48.200;16.338;2022-12-18T19:23:39;33.50;;;16.10;;
40052;SDS011;25758;48.200;16.338;2022-12-18T19:39:12;35.70;;;16.60;;
40052;SDS011;25758;48.200;16.338;2022-12-18T19:41:40;40.67;;;17.10;;
40052;SDS011;25758;48.200;16.338;2022-12-18T19:58:02;37.23;;;16.40;;
40052;SDS011;25758;48.200;16.338;2022-12-18T20:00:28;41.03;;;18.53;;
40052;SDS011;25758;48.200;16.338;2022-12-18T20:12:08;39.00;;;18.20;;
40052;SDS011;25758;48.200;16.338;2022-12-18T20:14:35;41.60;;;18.70;;
40052;SDS011;25758;48.200;16.338;2022-12-18T20:17:01;37.03;;;17.70;;
40052;SDS011;25758;48.200;16.338;2022-12-18T20:22:47;36.10;;;17.90;;
40052;SDS011;25758;48.200;16.338;2022-12-18T20:25:13;38.23;;;19.07;;
40052;SDS011;25758;48.200;16.338;2022-12-18T20:34:41;59.17;;;25.57;;
40052;SDS011;25758;48.200;16.338;2022-12-18T20:39:52;42.33;;;18.40;;
40052;SDS011;25758;48.200;16.338;2022-12-18T20:42:18;41.60;;;19.53;;
40052;SDS011;25758;48.200;16.338;2022-12-18T21:11:31;42.10;;;20.03;;
40052;SDS011;25758;48.200;16.338;2022-12-18T21:17:42;39.50;;;20.53;;
40052;SDS011;25758;48.200;16.338;2022-12-18T21:20:13;41.43;;;21.10;;
40052;SDS011;25758;48.200;16.338;2022-12-18T21:22:39;41.50;;;18.67;;
40052;SDS011;25758;48.200;16.338;2022-12-18T21:25:05;39.77;;;19.87;;
40052;SDS011;25758;48.200;16.338;2022-12-18T21:34:25;39.33;;;19.27;;
40052;SDS011;25758;48.200;16.338;2022-12-18T22:11:24;41.17;;;21.10;;
40052;SDS011;25758;48.200;16.338;2022-12-18T22:21:02;44.10;;;20.97;;
40052;SDS011;25758;48.200;16.338;2022-12-18T22:26:22;45.80;;;20.30;;
40052;SDS011;25758;48.200;16.338;2022-12-18T22:28:49;41.23;;;20.40;;
40052;SDS011;25758;48.200;16.338;2022-12-18T22:37:32;42.03;;;18.83;;
40052;SDS011;25758;48.200;16.338;2022-12-18T22:39:57;41.60;;;19.80;;
